Time;durP1;ratioP1;P1;durP2;ratioP2;P2;SDS_P1;SDS_P2;PMS_P1;PMS_P2;Temp;Humidity;BMP_temperature;BMP_pressure;BME280_temperature;BME280_humidity;BME280_pressure;Samples;Min_cycle;Max_cycle;Signal;HPM_P1;HPM_P2
2022/08/11 00:00:49;;;;;;;24.95;12.07;;;;;;;22.70;79.55;99625.14;1740692;82;21205;-80
2022/08/11 00:04:07;;;;;;;22.95;14.47;;;;;;;22.70;79.37;99629.33;1740305;82;21757;-80
2022/08/11 00:07:13;;;;;;;24.65;13.88;;;;;;;22.56;79.53;99627.31;1739952;82;21200;-80
2022/08/11 00:10:28;;;;;;;20.23;12.78;;;;;;;22.74;78.67;99626.00;1740890;82;21186;-80
2022/08/11 00:13:46;;;;;;;26.30;13.05;;;;;;;22.76;78.28;99623.77;1740275;81;21213;-79
2022/08/11 00:17:04;;;;;;;18.40;12.58;;;;;;;22.84;77.56;99621.86;1741701;82;21737;-80
2022/08/11 00:20:15;;;;;;;18.37;12.25;;;;;;;22.78;77.45;99624.35;1741156;82;21869;-78
2022/08/11 00:23:23;;;;;;;33.98;13.00;;;;;;;22.67;77.24;99621.50;1740942;82;21188;-80
2022/08/11 00:26:29;;;;;;;27.27;13.60;;;;;;;22.62;77.00;99627.61;1741739;82;21845;-80
2022/08/11 00:29:35;;;;;;;16.97;11.68;;;;;;;22.47;77.31;99624.20;1741751;82;21205;-81
2022/08/11 00:32:45;;;;;;;22.25;12.40;;;;;;;22.49;76.62;99627.58;1741209;82;21192;-80
2022/08/11 00:35:52;;;;;;;19.55;11.40;;;;;;;22.48;76.11;99618.91;1740285;82;21746;-79
2022/08/11 00:38:59;;;;;;;18.17;11.78;;;;;;;22.52;75.54;99620.05;1740391;82;21208;-80
2022/08/11 00:42:46;;;;;;;19.67;11.18;;;;;;;22.51;73.87;99620.33;1741576;82;21746;-80
2022/08/11 00:46:26;;;;;;;16.32;10.38;;;;;;;22.53;73.66;99615.31;1730441;81;21730;-80
2022/08/11 00:50:01;;;;;;;20.62;10.68;;;;;;;22.56;72.49;99610.03;1741707;82;21141;-80
2022/08/11 00:53:33;;;;;;;15.78;10.00;;;;;;;22.72;71.33;99616.50;1740577;82;21173;-80
2022/08/11 00:57:21;;;;;;;14.20;8.68;;;;;;;22.85;69.57;99610.98;1741617;82;21157;-80
2022/08/11 01:00:30;;;;;;;14.58;9.45;;;;;;;22.82;67.86;99607.33;1741188;82;21236;-80
2022/08/11 01:04:17;;;;;;;10.08;8.48;;;;;;;23.01;65.44;99618.33;1740466;82;21196;-80
2022/08/11 01:07:50;;;;;;;16.85;8.48;;;;;;;23.13;63.83;99607.73;1744935;82;21189;-79
2022/08/11 01:11:31;;;;;;;16.27;9.05;;;;;;;23.16;63.00;99611.38;1745946;81;21215;-79
2022/08/11 01:15:01;;;;;;;14.33;8.95;;;;;;;23.20;62.52;99608.32;1754363;82;21208;-80
2022/08/11 01:19:04;;;;;;;21.95;9.78;;;;;;;23.28;61.93;99601.34;1754138;82;21184;-80
2022/08/11 01:22:25;;;;;;;15.93;8.70;;;;;;;23.29;61.73;99601.64;1753526;82;21180;-80
2022/08/11 01:26:01;;;;;;;15.70;8.50;;;;;;;23.32;61.42;99605.25;1754708;82;21204;-80
2022/08/11 01:29:59;;;;;;;14.43;8.40;;;;;;;23.30;61.17;99604.70;1742984;81;21164;-80
2022/08/11 01:33:45;;;;;;;14.25;7.92;;;;;;;23.29;60.81;99605.83;1754178;82;21192;-80
2022/08/11 01:37:09;;;;;;;13.25;8.90;;;;;;;23.29;60.68;99605.83;1754701;82;21165;-80
2022/08/11 01:40:44;;;;;;;14.40;7.83;;;;;;;23.26;60.62;99616.70;1754806;82;21161;-80
2022/08/11 01:44:39;;;;;;;13.98;8.68;;;;;;;23.25;60.59;99626.19;1753584;82;21209;-81
2022/08/11 01:48:15;;;;;;;20.92;8.23;;;;;;;23.21;60.56;99623.94;1754235;82;21169;-80
2022/08/11 01:51:43;;;;;;;18.75;8.63;;;;;;;23.19;60.22;99622.52;1754214;82;21860;-80
2022/08/11 01:55:15;;;;;;;13.85;7.12;;;;;;;23.26;59.66;99606.38;1753452;82;21232;-79
2022/08/11 01:58:27;;;;;;;18.15;7.95;;;;;;;23.30;59.39;99615.03;1753982;82;21203;-81
2022/08/11 02:02:00;;;;;;;14.33;7.87;;;;;;;23.32;59.20;99612.79;1758959;81;21200;-80
2022/08/11 02:05:27;;;;;;;12.37;8.03;;;;;;;23.31;58.93;99621.72;1754900;82;21149;-80
2022/08/11 02:08:54;;;;;;;13.78;7.40;;;;;;;23.19;58.93;99621.13;1754120;81;21710;-80
2022/08/11 02:12:00;;;;;;;12.47;8.08;;;;;;;23.19;58.86;99614.16;1754990;82;21188;-80
2022/08/11 02:15:27;;;;;;;17.15;8.90;;;;;;;23.26;58.55;99612.52;1755137;82;21164;-81
2022/08/11 02:26:24;;;;;;;9.95;7.17;;;;;;;23.28;58.58;99625.61;1755039;82;21156;-80
2022/08/11 02:29:41;;;;;;;10.23;7.12;;;;;;;23.27;58.49;99619.76;1754817;82;21574;-80
2022/08/11 02:36:26;;;;;;;14.93;7.47;;;;;;;23.26;58.83;99609.72;1755078;82;21164;-80
2022/08/11 02:39:47;;;;;;;10.45;6.97;;;;;;;23.19;59.01;99612.76;1753527;82;21719;-80
2022/08/11 02:42:58;;;;;;;9.68;7.03;;;;;;;23.15;59.66;99627.84;1753672;82;21185;-79
2022/08/11 02:46:34;;;;;;;12.98;6.78;;;;;;;23.08;59.84;99638.41;1754757;82;21160;-80
2022/08/11 02:49:55;;;;;;;9.85;6.17;;;;;;;23.04;60.09;99637.28;1754769;82;21185;-80
2022/08/11 02:53:14;;;;;;;8.38;6.83;;;;;;;23.02;60.13;99635.89;1753235;82;21686;-80
2022/08/11 02:57:16;;;;;;;7.95;6.05;;;;;;;22.96;60.46;99630.86;1754804;82;21161;-80
2022/08/11 03:00:23;;;;;;;8.68;6.22;;;;;;;23.00;60.16;99638.09;1753380;82;21714;-80
2022/08/11 03:03:38;;;;;;;9.75;6.80;;;;;;;23.00;60.27;99638.94;1753300;82;21180;-79
2022/08/11 03:06:57;;;;;;;12.28;6.30;;;;;;;23.10;59.91;99646.48;1754711;82;21173;-80
2022/08/11 03:10:22;;;;;;;11.57;6.33;;;;;;;23.18;59.28;99648.19;1753322;81;21742;-80
2022/08/11 03:17:32;;;;;;;12.35;6.53;;;;;;;23.41;58.91;99641.82;1754687;82;21223;-80
2022/08/11 03:20:54;;;;;;;8.90;6.05;;;;;;;23.53;58.86;99644.36;1754805;82;21173;-80
2022/08/11 03:24:21;;;;;;;8.60;6.58;;;;;;;23.50;59.24;99640.16;1753661;82;21764;-80
2022/08/11 03:28:11;;;;;;;11.75;5.75;;;;;;;23.58;59.30;99642.41;1754344;82;21176;-80
2022/08/11 03:31:41;;;;;;;;;;;;;;;23.68;58.92;99649.98;1757294;82;21729;-79
2022/08/11 03:34:47;;;;;;;10.35;6.85;;;;;;;23.76;58.46;99652.75;1754826;82;20187;-79
2022/08/11 03:38:05;;;;;;;15.48;5.85;;;;;;;23.80;58.11;99660.85;1754045;82;21204;-79
2022/08/11 03:41:44;;;;;;;20.20;6.78;;;;;;;23.85;57.70;99655.27;1754672;82;21204;-80
2022/08/11 03:45:09;;;;;;;13.98;6.67;;;;;;;23.96;57.36;99656.39;1754349;82;21186;-80
2022/08/11 03:48:29;;;;;;;17.23;6.45;;;;;;;24.15;56.68;99667.83;1753320;82;21796;-80
2022/08/11 03:51:40;;;;;;;11.08;6.58;;;;;;;24.29;56.28;99665.86;1753267;82;21169;-81
2022/08/11 03:55:15;;;;;;;13.30;6.30;;;;;;;24.34;55.06;99661.66;1753848;82;21248;-81
2022/08/11 03:58:23;;;;;;;19.92;6.40;;;;;;;24.31;55.34;99661.64;1753805;82;21765;-80
2022/08/11 04:02:07;;;;;;;13.05;7.10;;;;;;;24.39;55.17;99664.47;1754671;82;21205;-80
2022/08/11 04:05:11;;;;;;;10.80;6.65;;;;;;;24.39;55.27;99674.25;1754779;82;21149;-80
2022/08/11 04:08:32;;;;;;;16.20;7.25;;;;;;;24.41;55.27;99670.59;1720701;81;21181;-80
2022/08/11 04:12:08;;;;;;;10.98;6.55;;;;;;;24.34;55.26;99656.06;1741804;82;21193;-80
2022/08/11 04:19:44;;;;;;;13.72;7.10;;;;;;;24.30;55.93;99675.34;1740203;82;21197;-79
2022/08/11 04:23:28;;;;;;;19.95;7.80;;;;;;;24.42;55.13;99665.31;1740785;82;21228;-79
2022/08/11 04:27:02;;;;;;;10.40;7.58;;;;;;;24.66;54.32;99673.34;1741527;82;21196;-79
2022/08/11 04:30:37;;;;;;;13.00;7.58;;;;;;;24.79;53.37;99677.46;1734139;81;21691;-80
2022/08/11 04:34:02;;;;;;;8.48;7.40;;;;;;;24.87;53.15;99678.28;1740439;82;21208;-80
2022/08/11 04:37:33;;;;;;;13.05;7.50;;;;;;;25.02;52.61;99682.97;1740444;82;21205;-79
2022/08/11 04:41:17;;;;;;;14.55;7.90;;;;;;;25.13;51.86;99677.64;1741048;82;21630;-79
2022/08/11 04:44:59;;;;;;;10.95;7.75;;;;;;;25.20;51.41;99672.55;1750563;81;21197;-80
2022/08/11 05:03:50;;;;;;;20.60;9.13;;;;;;;25.76;50.04;99678.95;1741266;82;21197;-80
2022/08/11 05:07:41;;;;;;;15.38;8.65;;;;;;;25.91;48.12;99683.85;1741576;82;21181;-80
2022/08/11 05:11:29;;;;;;;11.90;8.75;;;;;;;26.07;47.92;99679.54;1744031;80;21228;-79
2022/08/11 05:35:54;;;;;;;14.58;9.48;;;;;;;25.28;50.11;99692.11;1761403;81;21259;-80
2022/08/11 05:56:28;;;;;;;24.00;11.35;;;;;;;24.56;55.54;99717.23;1761487;81;21551;-80
2022/08/11 05:59:34;;;;;;;22.48;11.18;;;;;;;24.50;54.89;99717.81;1764270;81;21204;-81
2022/08/11 06:02:40;;;;;;;17.17;10.63;;;;;;;24.54;54.12;99727.31;1757894;81;21163;-81
2022/08/11 06:05:48;;;;;;;18.62;11.60;;;;;;;24.62;53.20;99712.77;1762749;81;21153;-81
2022/08/11 06:08:54;;;;;;;20.48;12.40;;;;;;;24.78;52.70;99714.11;1752679;81;21251;-81
2022/08/11 06:11:59;;;;;;;19.25;10.68;;;;;;;24.94;52.94;99714.35;1755463;81;21209;-81
2022/08/11 06:15:13;;;;;;;16.45;11.00;;;;;;;25.06;51.39;99702.81;1761144;81;21148;-81
2022/08/11 06:18:18;;;;;;;24.12;11.93;;;;;;;25.16;50.82;99698.03;1762382;81;21738;-80
2022/08/11 06:21:23;;;;;;;24.12;11.50;;;;;;;25.17;50.86;99709.53;1757523;81;21135;-80
2022/08/11 06:24:31;;;;;;;20.70;11.03;;;;;;;25.23;51.80;99713.13;1767992;81;21762;-80
2022/08/11 06:27:39;;;;;;;16.27;11.33;;;;;;;25.33;52.05;99721.47;1763415;81;21142;-80
2022/08/11 06:30:49;;;;;;;15.05;10.82;;;;;;;25.46;52.57;99715.81;1758126;81;21193;-80
2022/08/11 06:34:04;;;;;;;12.43;9.88;;;;;;;25.74;51.71;99728.23;1753765;81;21525;-79
2022/08/11 06:37:40;;;;;;;18.15;11.63;;;;;;;26.00;50.97;99721.89;1765061;81;21200;-80
2022/08/11 06:41:31;;;;;;;27.00;11.43;;;;;;;26.18;50.42;99724.55;1762691;81;21233;-80
2022/08/11 06:44:46;;;;;;;21.45;11.90;;;;;;;26.42;49.30;99718.42;1768583;81;21702;-80
2022/08/11 06:47:53;;;;;;;18.90;11.88;;;;;;;26.75;47.72;99732.13;1758496;81;21180;-80
2022/08/11 06:51:13;;;;;;;18.85;11.45;;;;;;;26.95;46.94;99729.66;1702895;84;21181;-80
2022/08/11 06:54:18;;;;;;;16.65;11.15;;;;;;;27.13;47.05;99735.09;1740762;82;21220;-80
2022/08/11 07:00:32;;;;;;;24.40;11.85;;;;;;;27.62;46.22;99738.09;1740074;82;21285;-80
2022/08/11 07:03:37;;;;;;;17.23;11.38;;;;;;;28.02;44.88;99758.30;1740002;82;21212;-80
2022/08/11 07:17:38;;;;;;;18.55;11.53;;;;;;;28.67;42.69;99737.23;1762701;80;21769;-80
2022/08/11 07:31:22;;;;;;;24.75;13.05;;;;;;;28.66;43.03;99743.17;1758475;81;21753;-80
2022/08/11 07:34:36;;;;;;;;;;;;;;;28.83;42.82;99741.98;1766272;81;21153;-80
2022/08/11 07:37:41;;;;;;;21.40;12.90;;;;;;;29.09;42.33;99733.90;1750664;81;20193;-80
2022/08/11 07:40:49;;;;;;;16.65;11.97;;;;;;;29.26;41.95;99738.88;1752711;81;21710;-80
2022/08/11 07:44:07;;;;;;;27.32;13.32;;;;;;;29.42;42.81;99741.64;1754930;81;21122;-80
2022/08/11 07:53:57;;;;;;;17.92;12.55;;;;;;;29.06;43.46;99733.69;1768659;81;21817;-80
2022/08/11 08:17:52;;;;;;;20.92;13.70;;;;;;;28.76;44.47;99725.52;1773046;80;21169;-80
2022/08/11 08:20:56;;;;;;;23.12;13.62;;;;;;;28.75;44.85;99723.02;1755457;80;21164;-80
2022/08/11 08:24:03;;;;;;;19.20;13.62;;;;;;;29.08;43.69;99730.83;1783703;80;21233;-80
2022/08/11 08:27:08;;;;;;;25.68;14.35;;;;;;;29.12;44.85;99729.61;1733170;80;21781;-80
2022/08/11 08:33:38;;;;;;;25.17;16.93;;;;;;;29.58;42.45;99718.20;1726467;82;21216;-80
2022/08/11 08:36:44;;;;;;;25.25;14.73;;;;;;;29.82;41.91;99722.73;1730103;82;21725;-80
2022/08/11 08:39:50;;;;;;;27.40;16.23;;;;;;;29.96;40.97;99727.73;1732971;82;21145;-80
2022/08/11 08:42:59;;;;;;;25.32;16.12;;;;;;;30.13;40.37;99720.86;1724084;82;21852;-80
2022/08/11 08:46:05;;;;;;;26.65;16.60;;;;;;;30.25;40.53;99726.77;1729405;82;21220;-80
2022/08/11 08:49:10;;;;;;;24.47;15.35;;;;;;;30.32;40.85;99718.41;1728182;82;21246;-80
2022/08/11 08:52:16;;;;;;;23.30;16.07;;;;;;;30.38;40.83;99722.77;1705353;82;21734;-80
2022/08/11 08:55:26;;;;;;;24.10;16.77;;;;;;;30.45;41.90;99725.39;1728849;82;21228;-81
2022/08/11 08:58:32;;;;;;;21.12;15.05;;;;;;;30.71;40.10;99716.25;1735547;82;21751;-80
2022/08/11 09:01:51;;;;;;;29.27;17.15;;;;;;;30.57;39.97;99723.95;1708410;82;21240;-79
2022/08/11 09:04:56;;;;;;;27.87;17.30;;;;;;;30.80;39.83;99723.59;1721991;82;21173;-80
2022/08/11 09:08:03;;;;;;;27.07;17.48;;;;;;;30.96;39.28;99715.55;1738856;82;21248;-80
2022/08/11 09:15:04;;;;;;;29.48;18.07;;;;;;;31.05;38.61;99716.97;1733134;82;21204;-79
2022/08/11 09:18:05;;;;;;;24.90;16.80;;;;;;;31.17;37.80;99724.24;1734729;82;21173;-79
2022/08/11 09:21:11;;;;;;;33.70;18.23;;;;;;;31.21;38.79;99723.84;1708525;84;21195;-79
2022/08/11 09:27:29;;;;;;;31.05;17.80;;;;;;;31.07;38.90;99719.48;1695662;82;21201;-81
2022/08/11 09:30:34;;;;;;;37.65;18.57;;;;;;;31.15;38.23;99707.36;1673609;84;21272;-79
2022/08/11 09:33:41;;;;;;;34.18;18.98;;;;;;;31.24;38.83;99710.48;1677807;84;21208;-79
2022/08/11 09:40:32;;;;;;;32.48;18.95;;;;;;;31.53;37.92;99720.38;1659026;85;21169;-80
2022/08/11 09:47:11;;;;;;;31.23;19.12;;;;;;;31.63;36.20;99711.57;1661577;85;21867;-80
2022/08/11 09:50:12;;;;;;;35.35;19.60;;;;;;;31.73;36.35;99709.83;1661927;86;21250;-80
2022/08/11 09:53:19;;;;;;;28.10;18.65;;;;;;;31.84;35.97;99729.31;1692878;84;21247;-79
2022/08/11 09:59:52;;;;;;;36.10;21.93;;;;;;;31.99;34.71;99711.84;1708101;84;21789;-79
2022/08/11 10:03:01;;;;;;;38.23;21.77;;;;;;;32.10;34.71;99703.28;1706875;84;21754;-80
2022/08/11 10:09:27;;;;;;;42.85;21.60;;;;;;;32.34;34.99;99708.98;1719045;82;21185;-80
2022/08/11 10:12:36;;;;;;;34.50;21.12;;;;;;;32.42;34.67;99704.76;1707145;84;21245;-81
2022/08/11 10:15:42;;;;;;;30.55;18.98;;;;;;;32.52;33.92;99704.98;1718555;82;21244;-81
2022/08/11 10:18:51;;;;;;;36.05;19.42;;;;;;;32.55;34.45;99690.95;1705403;83;21225;-80
2022/08/11 10:28:47;;;;;;;29.35;19.25;;;;;;;32.81;31.41;99680.96;1704607;84;21259;-79
2022/08/11 10:35:27;;;;;;;;;;;;;;;32.91;31.82;99689.69;1720052;82;21342;-82
2022/08/11 10:38:37;;;;;;;23.73;15.68;;;;;;;33.06;29.46;99694.77;1688370;84;20208;-81
2022/08/11 10:48:47;;;;;;;25.40;12.98;;;;;;;33.32;28.71;99690.38;1756537;81;21181;-80
2022/08/11 10:58:49;;;;;;;30.08;15.93;;;;;;;33.05;27.65;99700.78;1740223;82;21215;-82
2022/08/11 11:01:57;;;;;;;26.95;15.85;;;;;;;32.96;28.05;99692.92;1745657;81;21189;-83
2022/08/11 11:05:20;;;;;;;32.53;17.17;;;;;;;32.88;29.24;99691.74;1756049;81;21161;-82
2022/08/11 11:18:54;;;;;;;31.05;15.30;;;;;;;32.45;30.35;99705.48;1762772;80;21189;-82
2022/08/11 11:22:36;;;;;;;27.58;17.30;;;;;;;32.37;30.25;99712.56;1769012;80;21559;-83
2022/08/11 11:25:23;;;;;;;24.82;16.60;;;;;;;32.30;31.85;99712.47;1766445;80;21173;-81
2022/08/11 11:28:40;;;;;;;24.55;16.77;;;;;;;32.32;32.54;99705.05;1779332;80;21216;-81
2022/08/11 11:32:19;;;;;;;24.20;16.05;;;;;;;32.34;32.69;99711.81;1752462;80;21172;-80
2022/08/11 11:35:45;;;;;;;31.42;17.12;;;;;;;32.38;32.34;99698.69;1754087;82;21163;-80
2022/08/11 11:38:55;;;;;;;35.20;16.50;;;;;;;32.59;32.92;99716.59;1753619;82;21216;-80
2022/08/11 11:42:03;;;;;;;24.90;16.70;;;;;;;32.74;32.73;99684.89;1767257;80;22254;-80
2022/08/11 11:45:08;;;;;;;30.27;16.77;;;;;;;32.91;32.11;99681.20;1748300;82;21208;-80
2022/08/11 11:48:16;;;;;;;26.68;16.62;;;;;;;33.00;32.12;99692.48;1711932;84;21197;-80
2022/08/11 11:51:22;;;;;;;28.45;17.17;;;;;;;33.05;32.03;99690.88;1677531;84;21200;-80
2022/08/11 11:54:38;;;;;;;29.65;16.35;;;;;;;33.19;31.81;99684.97;1742301;82;21217;-80
2022/08/11 12:01:24;;;;;;;20.72;14.47;;;;;;;33.50;31.79;99687.44;1701692;83;21329;-80
2022/08/11 12:04:25;;;;;;;28.70;15.70;;;;;;;33.71;30.06;99678.36;1696820;82;21148;-79
2022/08/11 12:14:28;;;;;;;24.60;15.45;;;;;;;33.44;28.93;99693.08;1730088;83;21174;-79
2022/08/11 12:17:34;;;;;;;25.25;15.18;;;;;;;33.21;29.24;99694.77;1729031;83;21189;-80
2022/08/11 12:20:40;;;;;;;20.32;14.03;;;;;;;33.14;29.39;99674.66;1721184;82;21193;-80
2022/08/11 12:27:31;;;;;;;27.50;14.33;;;;;;;33.14;30.25;99685.16;1742896;82;21193;-80
2022/08/11 12:30:18;;;;;;;;;;;;;;;33.18;30.19;99697.48;1727337;82;21142;-80
2022/08/11 12:33:23;;;;;;;21.55;13.65;;;;;;;33.22;30.46;99669.53;1723012;82;20213;-80
2022/08/11 12:36:26;;;;;;;22.40;13.78;;;;;;;33.35;30.42;99683.77;1743081;82;21212;-80
2022/08/11 12:46:39;;;;;;;17.27;12.23;;;;;;;33.06;30.06;99684.03;1733256;82;21213;-79
2022/08/11 12:53:14;;;;;;;22.40;12.07;;;;;;;32.90;30.71;99678.68;1713414;82;21227;-79
2022/08/11 13:06:33;;;;;;;23.75;14.38;;;;;;;32.75;33.16;99678.08;1712778;84;21189;-80
2022/08/11 13:09:39;;;;;;;23.95;14.35;;;;;;;32.65;33.71;99675.60;1746533;82;21204;-80
2022/08/11 13:12:49;;;;;;;28.83;16.20;;;;;;;32.71;33.71;99687.59;1727879;83;21226;-80
2022/08/11 13:15:56;;;;;;;23.90;15.30;;;;;;;32.68;34.42;99676.94;1684275;83;21525;-80
2022/08/11 13:19:05;;;;;;;25.05;14.10;;;;;;;32.70;35.12;99684.48;1696350;84;21221;-79
2022/08/11 13:22:11;;;;;;;29.37;17.33;;;;;;;32.69;34.24;99680.83;1682408;84;21205;-79
2022/08/11 13:25:16;;;;;;;26.37;15.70;;;;;;;32.65;35.04;99664.86;1681549;85;21182;-80
2022/08/11 13:28:22;;;;;;;31.25;15.58;;;;;;;32.61;36.14;99666.70;1680230;85;21253;-79
2022/08/11 13:31:27;;;;;;;24.35;16.65;;;;;;;32.42;36.79;99686.92;1727447;82;21208;-80
2022/08/11 13:34:40;;;;;;;25.48;15.10;;;;;;;32.27;37.18;99667.86;1734982;82;21216;-80
2022/08/11 13:37:35;;;;;;;26.20;16.40;;;;;;;32.20;37.49;99661.91;1733713;82;21761;-80
2022/08/11 13:40:41;;;;;;;25.25;16.02;;;;;;;32.09;37.31;99662.03;1730239;82;21228;-80
2022/08/11 13:43:52;;;;;;;28.73;16.27;;;;;;;32.05;37.81;99668.10;1750678;81;21204;-81
2022/08/11 13:47:02;;;;;;;25.10;16.70;;;;;;;32.13;37.43;99655.92;1749903;81;21248;-80
2022/08/11 13:50:09;;;;;;;30.75;15.83;;;;;;;32.17;38.18;99671.05;1771625;81;21158;-84
2022/08/11 13:53:20;;;;;;;25.62;15.50;;;;;;;32.26;39.18;99664.80;1771425;81;21181;-84
2022/08/11 13:56:23;;;;;;;23.60;14.47;;;;;;;32.22;39.14;99665.22;1772261;81;21193;-84
2022/08/11 13:59:30;;;;;;;24.95;14.33;;;;;;;32.19;39.60;99657.42;1763082;81;21166;-84
2022/08/11 14:02:40;;;;;;;23.92;15.05;;;;;;;32.09;40.33;99659.20;1755166;81;21201;-83
2022/08/11 14:05:55;;;;;;;27.17;14.30;;;;;;;32.03;40.43;99659.10;1757395;81;21188;-82
2022/08/11 14:09:01;;;;;;;18.20;13.95;;;;;;;32.00;40.72;99659.80;1754261;81;21264;-83
2022/08/11 14:15:40;;;;;;;24.27;14.68;;;;;;;32.11;40.33;99641.30;1757727;81;21225;-84
2022/08/11 14:18:52;;;;;;;21.68;14.50;;;;;;;32.18;38.42;99647.84;1757671;81;21730;-83
2022/08/11 14:22:07;;;;;;;24.70;13.72;;;;;;;32.11;38.34;99635.64;1776472;80;21245;-83
2022/08/11 14:25:15;;;;;;;19.95;13.85;;;;;;;31.98;38.68;99636.66;1785526;80;21207;-83
2022/08/11 14:28:08;;;;;;;27.85;14.20;;;;;;;31.94;39.42;99628.59;1783649;80;21259;-83
2022/08/11 14:31:14;;;;;;;;;;;;;;;31.91;38.70;99632.11;1749566;82;21216;-83
2022/08/11 14:34:20;;;;;;;18.92;13.60;;;;;;;31.87;39.70;99639.59;1746441;82;20182;-84
2022/08/11 14:37:30;;;;;;;20.70;12.88;;;;;;;31.77;40.47;99628.84;1687832;85;21263;-83
2022/08/11 14:47:22;;;;;;;22.30;14.07;;;;;;;31.34;40.90;99633.09;1699877;84;21229;-83
2022/08/11 14:50:33;;;;;;;21.07;12.98;;;;;;;31.30;40.78;99614.55;1699886;84;21197;-83
2022/08/11 14:53:39;;;;;;;21.15;13.18;;;;;;;31.14;40.87;99618.14;1700162;84;21778;-83
2022/08/11 14:56:45;;;;;;;22.42;12.98;;;;;;;30.99;40.75;99622.27;1700506;84;21338;-82
2022/08/11 14:59:53;;;;;;;15.70;11.95;;;;;;;30.78;40.92;99615.84;1700435;84;21177;-83
2022/08/11 15:03:10;;;;;;;16.65;12.30;;;;;;;30.62;41.14;99613.16;1699771;84;21268;-82
2022/08/11 15:06:17;;;;;;;22.15;13.00;;;;;;;30.59;41.24;99611.02;1700959;84;21225;-83
2022/08/11 15:09:24;;;;;;;20.45;13.03;;;;;;;30.58;41.35;99614.14;1700715;84;21181;-83
2022/08/11 15:12:32;;;;;;;19.65;12.95;;;;;;;30.53;41.84;99608.06;1700609;84;21189;-82
2022/08/11 15:19:03;;;;;;;34.20;14.07;;;;;;;30.37;42.30;99611.08;1700978;84;21188;-83
2022/08/11 15:25:35;;;;;;;22.98;12.98;;;;;;;30.27;42.65;99620.66;1692742;85;21217;-82
2022/08/11 15:38:58;;;;;;;20.68;12.60;;;;;;;29.88;43.22;99626.46;1728330;83;21173;-82
2022/08/11 15:45:49;;;;;;;20.20;12.50;;;;;;;29.93;43.45;99629.73;1765812;81;21753;-83
2022/08/11 15:49:08;;;;;;;19.35;12.55;;;;;;;29.88;43.40;99621.38;1770632;81;21181;-83
2022/08/11 15:52:19;;;;;;;17.42;13.80;;;;;;;29.86;43.58;99620.30;1771097;81;21717;-83
2022/08/11 15:55:25;;;;;;;22.37;13.47;;;;;;;29.74;43.88;99632.75;1772379;81;21146;-84
2022/08/11 16:05:21;;;;;;;24.20;13.48;;;;;;;29.69;45.30;99633.70;1740181;82;21209;-80
2022/08/11 16:08:29;;;;;;;22.87;14.03;;;;;;;29.64;45.67;99625.38;1741044;82;21197;-80
2022/08/11 16:11:36;;;;;;;16.17;13.10;;;;;;;29.47;45.99;99638.70;1741023;82;21734;-80
2022/08/11 16:18:12;;;;;;;17.07;12.18;;;;;;;28.96;46.25;99637.04;1740980;82;21189;-83
2022/08/11 16:21:25;;;;;;;25.15;12.55;;;;;;;28.94;46.48;99651.16;1741203;81;21200;-82
2022/08/11 16:24:32;;;;;;;21.40;13.00;;;;;;;28.96;46.50;99653.09;1763858;81;21232;-83
2022/08/11 16:27:43;;;;;;;19.10;13.50;;;;;;;28.95;46.49;99663.53;1769512;80;21149;-83
2022/08/11 16:30:45;;;;;;;22.77;13.88;;;;;;;28.91;46.42;99663.03;1771768;81;21173;-83
2022/08/11 16:33:51;;;;;;;20.27;13.40;;;;;;;29.00;46.00;99663.99;1771633;81;21224;-83
2022/08/11 16:40:21;;;;;;;22.00;13.32;;;;;;;29.01;45.64;99669.88;1764294;81;21217;-80
2022/08/11 16:46:59;;;;;;;28.52;14.40;;;;;;;28.96;45.52;99677.85;1751158;81;21832;-80
2022/08/11 16:50:04;;;;;;;18.27;12.65;;;;;;;28.87;45.69;99682.52;1760316;81;21726;-82
2022/08/11 16:53:10;;;;;;;21.20;12.88;;;;;;;28.81;45.60;99680.13;1765695;81;21196;-80
2022/08/11 16:56:19;;;;;;;18.12;12.73;;;;;;;28.88;45.16;99683.34;1758120;81;21188;-80
2022/08/11 16:59:30;;;;;;;16.07;12.98;;;;;;;29.03;44.94;99690.95;1752180;81;21166;-80
2022/08/11 17:13:09;;;;;;;17.85;11.03;;;;;;;29.05;44.32;99697.66;1758245;81;21749;-80
2022/08/11 17:16:17;;;;;;;22.45;12.30;;;;;;;29.05;44.36;99708.92;1759957;81;21527;-80
2022/08/11 17:19:30;;;;;;;28.30;12.18;;;;;;;28.60;45.31;99700.78;1765053;81;21221;-80
2022/08/11 17:26:02;;;;;;;21.97;11.97;;;;;;;28.48;45.61;99699.90;1763869;80;21189;-80
2022/08/11 17:29:08;;;;;;;21.30;11.43;;;;;;;28.47;45.65;99696.26;1759599;81;21141;-80
2022/08/11 17:35:53;;;;;;;18.10;11.63;;;;;;;28.44;45.87;99762.13;1755093;81;21202;-79
2022/08/11 17:38:57;;;;;;;22.52;13.72;;;;;;;28.43;46.08;99768.33;1762748;81;21134;-81
2022/08/11 17:48:50;;;;;;;23.38;14.07;;;;;;;27.87;46.50;99742.52;1699720;84;21184;-82
2022/08/11 18:05:42;;;;;;;19.98;13.00;;;;;;;28.10;47.28;99681.71;1725691;82;21168;-80
